sensor_id;sensor_type;location;lat;lon;timestamp;pressure;altitude;pressure_sealevel;temperature;humidity
61963;BME280;47927;42.646;23.096;2023-02-19T00:01:07;92464.28;;;6.82;47.49
61963;BME280;47927;42.646;23.096;2023-02-19T00:03:38;92474.00;;;6.73;47.93
61963;BME280;47927;42.646;23.096;2023-02-19T00:06:06;92471.25;;;6.94;47.75
61963;BME280;47927;42.646;23.096;2023-02-19T00:08:33;92472.72;;;7.07;47.14
61963;BME280;47927;42.646;23.096;2023-02-19T00:11:01;92467.09;;;6.77;48.00
61963;BME280;47927;42.646;23.096;2023-02-19T00:13:26;92467.47;;;6.64;48.21
61963;BME280;47927;42.646;23.096;2023-02-19T00:15:52;92459.38;;;6.53;48.85
61963;BME280;47927;42.646;23.096;2023-02-19T00:18:17;92459.47;;;6.56;48.64
61963;BME280;47927;42.646;23.096;2023-02-19T00:20:43;92461.69;;;6.82;47.95
61963;BME280;47927;42.646;23.096;2023-02-19T00:23:08;92452.34;;;6.66;48.34
61963;BME280;47927;42.646;23.096;2023-02-19T00:25:37;92456.16;;;6.84;47.90
61963;BME280;47927;42.646;23.096;2023-02-19T00:28:03;92415.38;;;6.81;47.46
61963;BME280;47927;42.646;23.096;2023-02-19T00:30:29;92420.44;;;6.90;47.15
61963;BME280;47927;42.646;23.096;2023-02-19T00:32:54;92444.38;;;6.58;48.21
61963;BME280;47927;42.646;23.096;2023-02-19T00:35:20;92445.72;;;6.80;47.80
61963;BME280;47927;42.646;23.096;2023-02-19T00:37:45;92437.63;;;6.82;47.52
61963;BME280;47927;42.646;23.096;2023-02-19T00:40:11;92449.63;;;6.74;48.05
61963;BME280;47927;42.646;23.096;2023-02-19T00:42:37;92440.59;;;6.56;48.41
61963;BME280;47927;42.646;23.096;2023-02-19T00:45:02;92443.00;;;6.24;49.43
61963;BME280;47927;42.646;23.096;2023-02-19T00:47:28;92374.50;;;5.93;48.79
61963;BME280;47927;42.646;23.096;2023-02-19T00:49:53;92437.25;;;6.55;48.65
61963;BME280;47927;42.646;23.096;2023-02-19T00:52:19;92439.63;;;6.60;48.61
61963;BME280;47927;42.646;23.096;2023-02-19T00:54:45;92444.16;;;6.51;49.09
61963;BME280;47927;42.646;23.096;2023-02-19T00:57:10;92438.03;;;6.44;48.91
61963;BME280;47927;42.646;23.096;2023-02-19T00:59:36;92441.22;;;6.65;48.57
61963;BME280;47927;42.646;23.096;2023-02-19T01:02:02;92441.00;;;6.70;48.37
61963;BME280;47927;42.646;23.096;2023-02-19T01:04:28;92440.41;;;6.89;48.24
61963;BME280;47927;42.646;23.096;2023-02-19T01:06:54;92440.84;;;7.19;47.48
61963;BME280;47927;42.646;23.096;2023-02-19T01:09:20;92431.06;;;7.28;47.00
61963;BME280;47927;42.646;23.096;2023-02-19T01:11:45;92422.91;;;7.26;47.05
61963;BME280;47927;42.646;23.096;2023-02-19T01:14:11;92418.13;;;7.28;47.00
61963;BME280;47927;42.646;23.096;2023-02-19T01:16:36;92421.22;;;7.34;46.69
61963;BME280;47927;42.646;23.096;2023-02-19T01:19:02;92419.78;;;6.93;48.06
61963;BME280;47927;42.646;23.096;2023-02-19T01:21:29;92425.09;;;6.84;48.40
61963;BME280;47927;42.646;23.096;2023-02-19T01:23:56;92424.28;;;6.68;48.75
61963;BME280;47927;42.646;23.096;2023-02-19T01:26:26;92434.47;;;6.89;48.31
61963;BME280;47927;42.646;23.096;2023-02-19T01:28:52;92422.66;;;7.03;47.93
61963;BME280;47927;42.646;23.096;2023-02-19T01:31:20;92430.34;;;7.00;47.98
61963;BME280;47927;42.646;23.096;2023-02-19T01:33:48;92432.38;;;7.06;47.64
61963;BME280;47927;42.646;23.096;2023-02-19T01:36:14;92429.47;;;7.08;47.73
61963;BME280;47927;42.646;23.096;2023-02-19T01:38:40;92430.38;;;7.16;47.27
61963;BME280;47927;42.646;23.096;2023-02-19T01:41:08;92434.84;;;7.31;46.92
61963;BME280;47927;42.646;23.096;2023-02-19T01:43:58;92442.50;;;7.12;47.09
61963;BME280;47927;42.646;23.096;2023-02-19T01:46:29;92447.91;;;6.78;48.33
61963;BME280;47927;42.646;23.096;2023-02-19T01:48:57;92448.94;;;6.12;50.32
61963;BME280;47927;42.646;23.096;2023-02-19T01:51:23;92454.56;;;6.14;50.11
61963;BME280;47927;42.646;23.096;2023-02-19T01:53:54;92434.34;;;5.71;51.01
61963;BME280;47927;42.646;23.096;2023-02-19T01:56:21;92460.13;;;6.53;49.31
61963;BME280;47927;42.646;23.096;2023-02-19T01:58:48;92457.06;;;6.76;48.38
61963;BME280;47927;42.646;23.096;2023-02-19T02:01:14;92460.69;;;6.34;49.50
61963;BME280;47927;42.646;23.096;2023-02-19T02:03:41;92454.44;;;6.35;49.61
61963;BME280;47927;42.646;23.096;2023-02-19T02:06:16;92455.25;;;6.64;48.69
61963;BME280;47927;42.646;23.096;2023-02-19T02:08:44;92443.09;;;6.52;48.73
61963;BME280;47927;42.646;23.096;2023-02-19T02:11:29;92437.47;;;6.50;49.25
61963;BME280;47927;42.646;23.096;2023-02-19T02:13:55;92447.28;;;6.57;48.93
61963;BME280;47927;42.646;23.096;2023-02-19T02:19:11;92447.97;;;5.92;50.52
61963;BME280;47927;42.646;23.096;2023-02-19T02:32:26;92445.16;;;6.34;49.45
61963;BME280;47927;42.646;23.096;2023-02-19T02:35:04;92440.97;;;6.05;50.14
61963;BME280;47927;42.646;23.096;2023-02-19T02:37:34;92443.25;;;6.19;50.14
61963;BME280;47927;42.646;23.096;2023-02-19T02:40:02;92445.81;;;6.44;49.24
61963;BME280;47927;42.646;23.096;2023-02-19T02:42:32;92443.00;;;6.36;49.13
61963;BME280;47927;42.646;23.096;2023-02-19T02:48:40;92459.94;;;6.34;49.04
61963;BME280;47927;42.646;23.096;2023-02-19T02:56:34;92443.13;;;6.03;49.78
61963;BME280;47927;42.646;23.096;2023-02-19T02:59:03;92446.31;;;5.88;50.32
61963;BME280;47927;42.646;23.096;2023-02-19T03:01:58;92449.94;;;5.96;50.26
61963;BME280;47927;42.646;23.096;2023-02-19T03:08:00;92446.13;;;5.81;50.71
61963;BME280;47927;42.646;23.096;2023-02-19T03:10:37;92451.84;;;5.86;50.21
61963;BME280;47927;42.646;23.096;2023-02-19T03:13:07;92441.25;;;5.21;52.33
61963;BME280;47927;42.646;23.096;2023-02-19T03:15:57;92448.44;;;5.61;51.20
61963;BME280;47927;42.646;23.096;2023-02-19T03:18:47;92452.41;;;5.46;51.90
61963;BME280;47927;42.646;23.096;2023-02-19T03:21:36;92449.34;;;5.65;51.22
61963;BME280;47927;42.646;23.096;2023-02-19T03:24:08;92452.19;;;5.52;51.61
61963;BME280;47927;42.646;23.096;2023-02-19T03:26:55;92459.31;;;5.55;51.53
61963;BME280;47927;42.646;23.096;2023-02-19T03:29:23;92455.25;;;5.78;50.72
61963;BME280;47927;42.646;23.096;2023-02-19T03:32:02;92461.47;;;6.10;49.45
61963;BME280;47927;42.646;23.096;2023-02-19T03:34:38;92472.31;;;6.04;49.65
61963;BME280;47927;42.646;23.096;2023-02-19T03:37:14;92472.78;;;5.60;51.11
61963;BME280;47927;42.646;23.096;2023-02-19T03:39:41;92483.28;;;5.88;50.35
61963;BME280;47927;42.646;23.096;2023-02-19T03:42:34;92482.84;;;5.74;50.56
61963;BME280;47927;42.646;23.096;2023-02-19T03:51:03;92482.97;;;5.90;50.50
61963;BME280;47927;42.646;23.096;2023-02-19T03:53:52;92481.50;;;5.68;50.90
61963;BME280;47927;42.646;23.096;2023-02-19T04:01:29;92485.44;;;5.41;51.81
61963;BME280;47927;42.646;23.096;2023-02-19T04:04:18;92487.19;;;5.16;52.21
61963;BME280;47927;42.646;23.096;2023-02-19T04:06:49;92488.44;;;5.10;52.82
61963;BME280;47927;42.646;23.096;2023-02-19T04:09:19;92487.56;;;5.27;52.46
61963;BME280;47927;42.646;23.096;2023-02-19T04:11:50;92490.47;;;4.32;54.97
61963;BME280;47927;42.646;23.096;2023-02-19T04:14:40;92484.78;;;5.11;53.13
61963;BME280;47927;42.646;23.096;2023-02-19T04:17:15;92493.00;;;4.71;53.85
61963;BME280;47927;42.646;23.096;2023-02-19T04:19:43;92491.47;;;4.70;54.29
61963;BME280;47927;42.646;23.096;2023-02-19T04:22:11;92498.63;;;5.27;52.57
61963;BME280;47927;42.646;23.096;2023-02-19T04:24:46;92500.06;;;5.37;52.24
61963;BME280;47927;42.646;23.096;2023-02-19T04:27:12;92501.81;;;5.12;52.37
61963;BME280;47927;42.646;23.096;2023-02-19T04:29:38;92494.41;;;5.22;52.57
61963;BME280;47927;42.646;23.096;2023-02-19T04:32:04;92496.81;;;5.73;51.13
61963;BME280;47927;42.646;23.096;2023-02-19T04:34:29;92497.75;;;5.23;52.11
61963;BME280;47927;42.646;23.096;2023-02-19T04:36:55;92507.72;;;4.70;53.62
61963;BME280;47927;42.646;23.096;2023-02-19T04:39:20;92506.19;;;5.11;53.07
61963;BME280;47927;42.646;23.096;2023-02-19T04:41:46;92499.47;;;5.52;51.41
61963;BME280;47927;42.646;23.096;2023-02-19T04:44:11;92513.56;;;5.21;52.47
61963;BME280;47927;42.646;23.096;2023-02-19T04:46:39;92486.63;;;4.89;52.94
61963;BME280;47927;42.646;23.096;2023-02-19T04:49:05;92506.69;;;5.25;52.61
61963;BME280;47927;42.646;23.096;2023-02-19T04:51:30;92509.94;;;5.68;50.98
61963;BME280;47927;42.646;23.096;2023-02-19T04:53:56;92520.72;;;5.70;50.93
61963;BME280;47927;42.646;23.096;2023-02-19T04:56:21;92512.31;;;5.28;51.41
61963;BME280;47927;42.646;23.096;2023-02-19T04:58:47;92518.19;;;5.16;52.47
61963;BME280;47927;42.646;23.096;2023-02-19T05:01:13;92497.94;;;5.39;51.48
61963;BME280;47927;42.646;23.096;2023-02-19T05:03:38;92503.50;;;5.41;51.64
61963;BME280;47927;42.646;23.096;2023-02-19T05:06:07;92512.47;;;5.43;51.00
61963;BME280;47927;42.646;23.096;2023-02-19T05:08:33;92503.69;;;5.02;52.76
61963;BME280;47927;42.646;23.096;2023-02-19T05:11:00;92522.38;;;5.20;52.55
61963;BME280;47927;42.646;23.096;2023-02-19T05:13:26;92509.91;;;5.56;51.12
61963;BME280;47927;42.646;23.096;2023-02-19T05:15:57;92525.06;;;4.91;52.98
61963;BME280;47927;42.646;23.096;2023-02-19T05:18:24;92528.97;;;5.18;52.88
61963;BME280;47927;42.646;23.096;2023-02-19T05:20:50;92523.69;;;5.47;51.61
61963;BME280;47927;42.646;23.096;2023-02-19T05:23:16;92524.16;;;5.62;51.07
61963;BME280;47927;42.646;23.096;2023-02-19T05:25:42;92524.84;;;4.96;53.02
61963;BME280;47927;42.646;23.096;2023-02-19T05:28:07;92525.66;;;5.30;52.52
61963;BME280;47927;42.646;23.096;2023-02-19T05:30:50;92528.34;;;5.54;51.89
61963;BME280;47927;42.646;23.096;2023-02-19T05:33:18;92525.94;;;5.49;52.26
61963;BME280;47927;42.646;23.096;2023-02-19T05:35:52;92531.94;;;5.95;50.99
61963;BME280;47927;42.646;23.096;2023-02-19T05:38:18;92532.06;;;6.23;50.13
61963;BME280;47927;42.646;23.096;2023-02-19T05:40:44;92531.97;;;6.44;49.54
61963;BME280;47927;42.646;23.096;2023-02-19T05:43:11;92539.84;;;6.72;48.65
61963;BME280;47927;42.646;23.096;2023-02-19T05:45:37;92538.16;;;7.04;48.30
61963;BME280;47927;42.646;23.096;2023-02-19T05:48:03;92536.03;;;7.63;47.14
61963;BME280;47927;42.646;23.096;2023-02-19T05:50:31;92531.69;;;8.58;45.16
61963;BME280;47927;42.646;23.096;2023-02-19T05:53:09;92540.59;;;9.47;43.03
61963;BME280;47927;42.646;23.096;2023-02-19T05:55:35;92546.50;;;10.06;42.02
61963;BME280;47927;42.646;23.096;2023-02-19T05:58:01;92550.50;;;10.95;40.16
61963;BME280;47927;42.646;23.096;2023-02-19T06:00:27;92548.81;;;11.71;38.76
61963;BME280;47927;42.646;23.096;2023-02-19T06:02:52;92555.16;;;12.03;37.84
61963;BME280;47927;42.646;23.096;2023-02-19T06:05:18;92550.81;;;12.59;36.18
61963;BME280;47927;42.646;23.096;2023-02-19T06:07:44;92560.88;;;12.57;36.55
61963;BME280;47927;42.646;23.096;2023-02-19T06:10:10;92556.91;;;12.74;36.37
61963;BME280;47927;42.646;23.096;2023-02-19T06:12:37;92562.91;;;13.33;35.05
61963;BME280;47927;42.646;23.096;2023-02-19T06:15:04;92565.69;;;13.69;34.73
61963;BME280;47927;42.646;23.096;2023-02-19T06:17:31;92561.25;;;13.80;34.45
61963;BME280;47927;42.646;23.096;2023-02-19T06:19:57;92567.13;;;13.56;34.95
61963;BME280;47927;42.646;23.096;2023-02-19T06:22:22;92568.88;;;13.30;35.11
61963;BME280;47927;42.646;23.096;2023-02-19T06:24:48;92570.34;;;13.28;35.22
61963;BME280;47927;42.646;23.096;2023-02-19T06:27:14;92554.69;;;13.35;34.88
61963;BME280;47927;42.646;23.096;2023-02-19T06:29:39;92567.16;;;13.59;34.78
61963;BME280;47927;42.646;23.096;2023-02-19T06:32:05;92557.56;;;13.99;34.42
61963;BME280;47927;42.646;23.096;2023-02-19T06:34:32;92563.28;;;14.58;33.17
61963;BME280;47927;42.646;23.096;2023-02-19T06:36:58;92563.66;;;15.00;33.23
61963;BME280;47927;42.646;23.096;2023-02-19T06:39:24;92539.22;;;15.32;32.21
61963;BME280;47927;42.646;23.096;2023-02-19T06:41:50;92564.94;;;15.90;31.61
61963;BME280;47927;42.646;23.096;2023-02-19T06:44:18;92568.09;;;16.93;29.86
61963;BME280;47927;42.646;23.096;2023-02-19T06:46:44;92575.50;;;17.47;29.17
61963;BME280;47927;42.646;23.096;2023-02-19T06:49:09;92574.44;;;18.09;27.94
61963;BME280;47927;42.646;23.096;2023-02-19T06:51:35;92570.56;;;18.72;27.31
61963;BME280;47927;42.646;23.096;2023-02-19T06:54:00;92572.19;;;19.12;26.79
61963;BME280;47927;42.646;23.096;2023-02-19T06:56:30;92567.69;;;19.56;25.68
61963;BME280;47927;42.646;23.096;2023-02-19T06:58:59;92571.47;;;20.52;24.79
61963;BME280;47927;42.646;23.096;2023-02-19T07:01:26;92577.31;;;21.45;23.67
61963;BME280;47927;42.646;23.096;2023-02-19T07:03:53;92571.09;;;22.35;22.78
61963;BME280;47927;42.646;23.096;2023-02-19T07:06:20;92575.47;;;23.40;21.48
61963;BME280;47927;42.646;23.096;2023-02-19T07:08:46;92565.66;;;24.38;20.51
61963;BME280;47927;42.646;23.096;2023-02-19T07:11:11;92569.84;;;25.29;19.66
61963;BME280;47927;42.646;23.096;2023-02-19T07:13:37;92570.56;;;25.76;19.35
61963;BME280;47927;42.646;23.096;2023-02-19T07:16:05;92567.88;;;26.73;17.78
61963;BME280;47927;42.646;23.096;2023-02-19T07:18:35;92574.41;;;27.78;17.21
61963;BME280;47927;42.646;23.096;2023-02-19T07:21:12;92569.59;;;28.65;15.78
61963;BME280;47927;42.646;23.096;2023-02-19T07:23:39;92574.72;;;29.60;14.63
61963;BME280;47927;42.646;23.096;2023-02-19T07:26:08;92572.41;;;30.14;13.65
61963;BME280;47927;42.646;23.096;2023-02-19T07:28:33;92574.41;;;31.14;13.16
61963;BME280;47927;42.646;23.096;2023-02-19T07:31:00;92577.78;;;31.46;12.37
61963;BME280;47927;42.646;23.096;2023-02-19T07:33:26;92577.28;;;31.05;12.66
61963;BME280;47927;42.646;23.096;2023-02-19T07:35:52;92553.53;;;31.41;12.70
61963;BME280;47927;42.646;23.096;2023-02-19T07:38:19;92573.97;;;31.75;12.44
61963;BME280;47927;42.646;23.096;2023-02-19T07:40:59;92572.53;;;31.86;12.47
61963;BME280;47927;42.646;23.096;2023-02-19T07:43:28;92583.09;;;30.92;12.94
61963;BME280;47927;42.646;23.096;2023-02-19T07:45:54;92577.03;;;30.97;12.58
61963;BME280;47927;42.646;23.096;2023-02-19T07:48:20;92579.59;;;30.80;13.08
61963;BME280;47927;42.646;23.096;2023-02-19T07:50:53;92575.13;;;30.77;12.67
61963;BME280;47927;42.646;23.096;2023-02-19T07:53:19;92586.25;;;30.91;12.76
61963;BME280;47927;42.646;23.096;2023-02-19T07:55:45;92579.81;;;31.63;12.29
61963;BME280;47927;42.646;23.096;2023-02-19T07:58:11;92565.16;;;29.53;13.04
61963;BME280;47927;42.646;23.096;2023-02-19T08:00:37;92575.41;;;30.48;12.99
61963;BME280;47927;42.646;23.096;2023-02-19T08:03:03;92565.50;;;28.10;14.39
61963;BME280;47927;42.646;23.096;2023-02-19T08:05:33;92568.47;;;28.12;14.73
61963;BME280;47927;42.646;23.096;2023-02-19T08:08:01;92564.81;;;28.90;14.42
61963;BME280;47927;42.646;23.096;2023-02-19T08:10:26;92564.84;;;29.92;14.16
61963;BME280;47927;42.646;23.096;2023-02-19T08:13:13;92573.16;;;30.72;12.99
61963;BME280;47927;42.646;23.096;2023-02-19T08:18:25;92574.03;;;30.06;13.44
61963;BME280;47927;42.646;23.096;2023-02-19T08:20:52;92582.59;;;30.30;13.64
61963;BME280;47927;42.646;23.096;2023-02-19T08:23:18;92566.28;;;30.39;13.45
61963;BME280;47927;42.646;23.096;2023-02-19T08:25:45;92586.91;;;29.55;13.97
61963;BME280;47927;42.646;23.096;2023-02-19T08:28:12;92575.59;;;29.66;14.28
61963;BME280;47927;42.646;23.096;2023-02-19T08:30:39;92569.75;;;29.12;14.56
61963;BME280;47927;42.646;23.096;2023-02-19T08:33:06;92569.41;;;30.32;13.22
61963;BME280;47927;42.646;23.096;2023-02-19T08:35:35;92576.38;;;30.45;13.68
61963;BME280;47927;42.646;23.096;2023-02-19T08:38:02;92581.69;;;31.02;13.63
61963;BME280;47927;42.646;23.096;2023-02-19T08:40:27;92571.44;;;30.75;13.62
61963;BME280;47927;42.646;23.096;2023-02-19T08:42:53;92565.91;;;30.84;13.48
61963;BME280;47927;42.646;23.096;2023-02-19T08:45:18;92567.72;;;31.36;13.02
61963;BME280;47927;42.646;23.096;2023-02-19T08:47:44;92558.13;;;29.76;14.30
61963;BME280;47927;42.646;23.096;2023-02-19T08:50:10;92571.13;;;29.22;14.86
61963;BME280;47927;42.646;23.096;2023-02-19T08:52:36;92563.91;;;29.95;14.07
61963;BME280;47927;42.646;23.096;2023-02-19T08:55:03;92560.91;;;30.39;13.78
61963;BME280;47927;42.646;23.096;2023-02-19T08:57:29;92558.13;;;30.86;13.66
61963;BME280;47927;42.646;23.096;2023-02-19T08:59:55;92560.88;;;30.97;13.51
61963;BME280;47927;42.646;23.096;2023-02-19T09:02:22;92553.34;;;31.55;13.17
61963;BME280;47927;42.646;23.096;2023-02-19T09:04:48;92544.16;;;31.90;12.78
61963;BME280;47927;42.646;23.096;2023-02-19T09:07:14;92535.28;;;31.13;13.04
61963;BME280;47927;42.646;23.096;2023-02-19T09:09:40;92542.19;;;30.82;13.78
61963;BME280;47927;42.646;23.096;2023-02-19T09:12:07;92533.75;;;30.69;13.55
61963;BME280;47927;42.646;23.096;2023-02-19T09:14:33;92537.63;;;30.62;13.33
61963;BME280;47927;42.646;23.096;2023-02-19T09:17:00;92524.38;;;30.22;13.75
61963;BME280;47927;42.646;23.096;2023-02-19T09:19:26;92521.72;;;30.59;13.80
61963;BME280;47927;42.646;23.096;2023-02-19T09:21:52;92528.09;;;30.99;13.50
61963;BME280;47927;42.646;23.096;2023-02-19T09:24:18;92522.69;;;30.93;13.13
61963;BME280;47927;42.646;23.096;2023-02-19T09:26:44;92530.53;;;30.91;13.05
61963;BME280;47927;42.646;23.096;2023-02-19T09:29:09;92517.41;;;31.10;13.19
61963;BME280;47927;42.646;23.096;2023-02-19T09:31:35;92517.84;;;30.65;12.77
61963;BME280;47927;42.646;23.096;2023-02-19T09:34:00;92513.94;;;29.77;13.68
61963;BME280;47927;42.646;23.096;2023-02-19T09:36:26;92512.56;;;30.13;13.65
61963;BME280;47927;42.646;23.096;2023-02-19T09:38:52;92518.31;;;30.58;13.51
61963;BME280;47927;42.646;23.096;2023-02-19T09:41:25;92515.63;;;30.58;14.05
61963;BME280;47927;42.646;23.096;2023-02-19T09:43:53;92506.91;;;30.37;14.01
61963;BME280;47927;42.646;23.096;2023-02-19T09:46:41;92500.31;;;29.81;14.04
61963;BME280;47927;42.646;23.096;2023-02-19T09:52:10;92484.97;;;28.99;15.00
61963;BME280;47927;42.646;23.096;2023-02-19T09:54:37;92496.53;;;29.26;14.49
61963;BME280;47927;42.646;23.096;2023-02-19T09:57:04;92481.50;;;26.67;16.75
61963;BME280;47927;42.646;23.096;2023-02-19T09:59:49;92480.22;;;27.49;15.98
61963;BME280;47927;42.646;23.096;2023-02-19T10:02:21;92475.78;;;27.08;15.87
61963;BME280;47927;42.646;23.096;2023-02-19T10:04:49;92470.16;;;26.81;16.99
61963;BME280;47927;42.646;23.096;2023-02-19T10:07:21;92462.47;;;26.98;16.68
61963;BME280;47927;42.646;23.096;2023-02-19T10:09:52;92437.56;;;26.35;16.95
61963;BME280;47927;42.646;23.096;2023-02-19T10:12:28;92446.69;;;27.24;16.36
61963;BME280;47927;42.646;23.096;2023-02-19T10:15:09;92451.75;;;27.91;15.43
61963;BME280;47927;42.646;23.096;2023-02-19T10:17:36;92441.63;;;25.88;17.12
61963;BME280;47927;42.646;23.096;2023-02-19T10:20:02;92440.84;;;25.87;17.39
61963;BME280;47927;42.646;23.096;2023-02-19T10:22:30;92438.53;;;26.47;16.91
61963;BME280;47927;42.646;23.096;2023-02-19T10:24:57;92436.34;;;26.45;16.82
61963;BME280;47927;42.646;23.096;2023-02-19T10:27:27;92436.00;;;26.52;16.95
61963;BME280;47927;42.646;23.096;2023-02-19T10:29:54;92427.81;;;26.80;17.03
61963;BME280;47927;42.646;23.096;2023-02-19T10:32:22;92416.72;;;26.48;16.70
61963;BME280;47927;42.646;23.096;2023-02-19T10:35:08;92406.94;;;26.21;17.18
61963;BME280;47927;42.646;23.096;2023-02-19T10:37:35;92391.66;;;26.46;16.83
61963;BME280;47927;42.646;23.096;2023-02-19T10:40:13;92403.53;;;26.45;17.44
61963;BME280;47927;42.646;23.096;2023-02-19T10:42:45;92401.50;;;25.45;17.35
61963;BME280;47927;42.646;23.096;2023-02-19T10:45:18;92391.41;;;24.39;18.64
61963;BME280;47927;42.646;23.096;2023-02-19T10:47:46;92393.09;;;24.73;18.34
61963;BME280;47927;42.646;23.096;2023-02-19T10:50:33;92382.88;;;25.09;18.36
61963;BME280;47927;42.646;23.096;2023-02-19T10:53:04;92382.44;;;25.29;18.58
61963;BME280;47927;42.646;23.096;2023-02-19T10:55:34;92379.94;;;25.16;18.19
61963;BME280;47927;42.646;23.096;2023-02-19T10:58:35;92372.50;;;24.46;17.89
61963;BME280;47927;42.646;23.096;2023-02-19T11:01:28;92361.66;;;24.31;18.66
61963;BME280;47927;42.646;23.096;2023-02-19T11:04:15;92364.94;;;23.86;19.59
61963;BME280;47927;42.646;23.096;2023-02-19T11:06:41;92352.59;;;23.39;19.35
61963;BME280;47927;42.646;23.096;2023-02-19T11:09:23;92349.56;;;23.28;19.51
61963;BME280;47927;42.646;23.096;2023-02-19T11:11:51;92337.53;;;22.92;20.15
61963;BME280;47927;42.646;23.096;2023-02-19T11:14:19;92336.50;;;22.55;20.16
61963;BME280;47927;42.646;23.096;2023-02-19T11:19:43;92322.06;;;22.78;20.37
61963;BME280;47927;42.646;23.096;2023-02-19T11:22:23;92325.59;;;22.40;20.57
61963;BME280;47927;42.646;23.096;2023-02-19T11:24:52;92317.50;;;22.56;20.10
61963;BME280;47927;42.646;23.096;2023-02-19T11:27:20;92304.75;;;22.29;20.85
61963;BME280;47927;42.646;23.096;2023-02-19T11:29:46;92307.78;;;22.40;20.35
61963;BME280;47927;42.646;23.096;2023-02-19T11:32:22;92304.78;;;22.03;20.99
61963;BME280;47927;42.646;23.096;2023-02-19T11:34:48;92305.69;;;22.35;20.61
61963;BME280;47927;42.646;23.096;2023-02-19T11:37:19;92299.78;;;22.05;20.44
61963;BME280;47927;42.646;23.096;2023-02-19T11:39:49;92302.25;;;21.23;21.01
61963;BME280;47927;42.646;23.096;2023-02-19T11:42:44;92293.31;;;21.04;21.83
61963;BME280;47927;42.646;23.096;2023-02-19T11:45:35;92284.69;;;21.42;21.61
61963;BME280;47927;42.646;23.096;2023-02-19T11:51:17;92280.97;;;21.27;22.02
61963;BME280;47927;42.646;23.096;2023-02-19T11:54:29;92275.34;;;21.50;21.44
61963;BME280;47927;42.646;23.096;2023-02-19T11:57:21;92273.22;;;21.83;21.14
61963;BME280;47927;42.646;23.096;2023-02-19T12:02:26;92270.31;;;20.46;22.55
61963;BME280;47927;42.646;23.096;2023-02-19T12:05:18;92269.03;;;20.80;22.36
61963;BME280;47927;42.646;23.096;2023-02-19T12:08:23;92257.63;;;21.09;22.30
61963;BME280;47927;42.646;23.096;2023-02-19T12:17:26;92252.75;;;20.94;22.38
61963;BME280;47927;42.646;23.096;2023-02-19T12:19:46;92239.84;;;21.09;22.31
61963;BME280;47927;42.646;23.096;2023-02-19T12:22:28;92235.63;;;21.37;21.42
61963;BME280;47927;42.646;23.096;2023-02-19T12:30:46;92216.09;;;20.38;22.76
61963;BME280;47927;42.646;23.096;2023-02-19T12:38:31;92201.09;;;20.19;22.56
61963;BME280;47927;42.646;23.096;2023-02-19T12:43:29;92184.94;;;20.84;22.39
61963;BME280;47927;42.646;23.096;2023-02-19T12:46:31;92184.53;;;20.99;21.93
61963;BME280;47927;42.646;23.096;2023-02-19T12:49:13;92170.94;;;20.58;21.86
61963;BME280;47927;42.646;23.096;2023-02-19T12:51:44;92174.13;;;20.53;22.28
61963;BME280;47927;42.646;23.096;2023-02-19T12:54:25;92167.16;;;20.98;22.24
61963;BME280;47927;42.646;23.096;2023-02-19T13:01:53;92167.47;;;19.90;23.37
61963;BME280;47927;42.646;23.096;2023-02-19T13:04:26;92160.06;;;19.69;23.36
61963;BME280;47927;42.646;23.096;2023-02-19T13:07:05;92153.97;;;20.01;23.17
61963;BME280;47927;42.646;23.096;2023-02-19T13:09:37;92153.53;;;20.44;22.87
61963;BME280;47927;42.646;23.096;2023-02-19T13:12:12;92150.59;;;20.13;23.05
61963;BME280;47927;42.646;23.096;2023-02-19T13:14:42;92133.38;;;20.21;23.05
61963;BME280;47927;42.646;23.096;2023-02-19T13:19:43;92134.03;;;20.25;22.93
61963;BME280;47927;42.646;23.096;2023-02-19T13:22:36;92124.50;;;20.15;22.19
61963;BME280;47927;42.646;23.096;2023-02-19T13:25:30;92126.50;;;19.82;23.39
61963;BME280;47927;42.646;23.096;2023-02-19T13:28:09;92116.19;;;20.00;23.32
61963;BME280;47927;42.646;23.096;2023-02-19T13:30:59;92104.41;;;19.59;23.66
61963;BME280;47927;42.646;23.096;2023-02-19T13:33:52;92103.56;;;19.79;23.64
61963;BME280;47927;42.646;23.096;2023-02-19T13:36:27;92094.38;;;19.54;23.67
61963;BME280;47927;42.646;23.096;2023-02-19T13:38:55;92101.63;;;19.50;24.31
61963;BME280;47927;42.646;23.096;2023-02-19T13:41:38;92099.25;;;19.85;23.58
61963;BME280;47927;42.646;23.096;2023-02-19T13:44:06;92100.66;;;19.44;23.50
61963;BME280;47927;42.646;23.096;2023-02-19T13:46:41;92105.03;;;18.69;24.60
61963;BME280;47927;42.646;23.096;2023-02-19T13:51:57;92089.94;;;19.35;24.13
61963;BME280;47927;42.646;23.096;2023-02-19T13:54:41;92089.22;;;19.18;23.92
61963;BME280;47927;42.646;23.096;2023-02-19T13:59:43;92084.09;;;18.95;23.81
61963;BME280;47927;42.646;23.096;2023-02-19T14:05:07;92079.38;;;19.35;24.21
61963;BME280;47927;42.646;23.096;2023-02-19T14:07:35;92069.97;;;19.18;24.20
61963;BME280;47927;42.646;23.096;2023-02-19T14:10:03;92063.56;;;19.19;24.12
61963;BME280;47927;42.646;23.096;2023-02-19T14:12:35;92057.56;;;19.02;23.74
61963;BME280;47927;42.646;23.096;2023-02-19T14:15:39;92062.19;;;18.81;24.30
61963;BME280;47927;42.646;23.096;2023-02-19T14:18:41;92061.84;;;19.41;23.76
61963;BME280;47927;42.646;23.096;2023-02-19T14:21:15;92062.28;;;19.40;23.10
61963;BME280;47927;42.646;23.096;2023-02-19T14:23:42;92058.41;;;19.86;22.81
61963;BME280;47927;42.646;23.096;2023-02-19T14:26:08;92049.72;;;19.73;22.67
61963;BME280;47927;42.646;23.096;2023-02-19T14:28:40;92049.66;;;19.60;23.01
61963;BME280;47927;42.646;23.096;2023-02-19T14:33:38;92043.78;;;19.69;22.76
61963;BME280;47927;42.646;23.096;2023-02-19T14:41:27;92034.94;;;19.46;23.47
61963;BME280;47927;42.646;23.096;2023-02-19T14:43:55;92044.25;;;19.05;23.55
61963;BME280;47927;42.646;23.096;2023-02-19T14:46:34;92045.75;;;19.06;23.63
61963;BME280;47927;42.646;23.096;2023-02-19T14:49:19;92043.69;;;18.49;24.32